sensor_id;sensor_type;location;lat;lon;timestamp;P1;durP1;ratioP1;P2;durP2;ratioP2
77466;SDS011;66564;42.482;25.548;2023-10-13T00:01:07;7.68;;;3.60;;
77466;SDS011;66564;42.482;25.548;2023-10-13T00:03:33;7.18;;;4.15;;
77466;SDS011;66564;42.482;25.548;2023-10-13T00:05:59;8.68;;;4.05;;
77466;SDS011;66564;42.482;25.548;2023-10-13T00:08:28;10.07;;;4.63;;
77466;SDS011;66564;42.482;25.548;2023-10-13T00:10:54;6.07;;;3.40;;
77466;SDS011;66564;42.482;25.548;2023-10-13T00:13:27;12.55;;;3.53;;
77466;SDS011;66564;42.482;25.548;2023-10-13T00:15:55;6.07;;;4.07;;
77466;SDS011;66564;42.482;25.548;2023-10-13T00:18:25;9.30;;;4.70;;
77466;SDS011;66564;42.482;25.548;2023-10-13T00:21:06;8.82;;;4.28;;
77466;SDS011;66564;42.482;25.548;2023-10-13T00:23:42;9.10;;;3.58;;
77466;SDS011;66564;42.482;25.548;2023-10-13T00:26:18;7.03;;;3.45;;
77466;SDS011;66564;42.482;25.548;2023-10-13T00:28:44;7.57;;;3.88;;
77466;SDS011;66564;42.482;25.548;2023-10-13T00:31:20;13.45;;;6.00;;
77466;SDS011;66564;42.482;25.548;2023-10-13T00:33:47;23.42;;;5.32;;
77466;SDS011;66564;42.482;25.548;2023-10-13T00:36:12;12.23;;;3.20;;
77466;SDS011;66564;42.482;25.548;2023-10-13T00:38:44;9.10;;;3.80;;
77466;SDS011;66564;42.482;25.548;2023-10-13T00:41:14;8.52;;;3.67;;
77466;SDS011;66564;42.482;25.548;2023-10-13T00:43:47;13.73;;;4.50;;
77466;SDS011;66564;42.482;25.548;2023-10-13T00:46:30;7.80;;;3.70;;
77466;SDS011;66564;42.482;25.548;2023-10-13T00:49:00;11.93;;;3.78;;
77466;SDS011;66564;42.482;25.548;2023-10-13T00:51:29;11.40;;;4.25;;
77466;SDS011;66564;42.482;25.548;2023-10-13T00:54:05;11.20;;;4.10;;
77466;SDS011;66564;42.482;25.548;2023-10-13T00:56:41;5.43;;;3.42;;
77466;SDS011;66564;42.482;25.548;2023-10-13T00:59:17;6.43;;;4.00;;
77466;SDS011;66564;42.482;25.548;2023-10-13T01:01:45;8.02;;;3.40;;
77466;SDS011;66564;42.482;25.548;2023-10-13T01:04:10;5.80;;;3.58;;
77466;SDS011;66564;42.482;25.548;2023-10-13T01:06:39;8.90;;;3.25;;
77466;SDS011;66564;42.482;25.548;2023-10-13T01:09:06;6.57;;;3.58;;
77466;SDS011;66564;42.482;25.548;2023-10-13T01:11:38;8.82;;;3.67;;
77466;SDS011;66564;42.482;25.548;2023-10-13T01:14:08;5.85;;;3.50;;
77466;SDS011;66564;42.482;25.548;2023-10-13T01:16:36;13.50;;;4.38;;
77466;SDS011;66564;42.482;25.548;2023-10-13T01:19:08;29.08;;;4.60;;
77466;SDS011;66564;42.482;25.548;2023-10-13T01:21:43;11.57;;;4.05;;
77466;SDS011;66564;42.482;25.548;2023-10-13T01:24:12;6.97;;;3.83;;
77466;SDS011;66564;42.482;25.548;2023-10-13T01:26:44;7.78;;;4.18;;
77466;SDS011;66564;42.482;25.548;2023-10-13T01:29:09;5.78;;;3.50;;
77466;SDS011;66564;42.482;25.548;2023-10-13T01:31:43;10.60;;;3.58;;
77466;SDS011;66564;42.482;25.548;2023-10-13T01:34:13;8.57;;;3.67;;
77466;SDS011;66564;42.482;25.548;2023-10-13T01:36:53;9.35;;;4.68;;
77466;SDS011;66564;42.482;25.548;2023-10-13T01:39:20;9.38;;;3.63;;
77466;SDS011;66564;42.482;25.548;2023-10-13T01:41:51;7.03;;;3.75;;
77466;SDS011;66564;42.482;25.548;2023-10-13T01:44:21;7.70;;;3.20;;
77466;SDS011;66564;42.482;25.548;2023-10-13T01:46:51;4.82;;;3.10;;
77466;SDS011;66564;42.482;25.548;2023-10-13T01:49:17;6.05;;;4.07;;
77466;SDS011;66564;42.482;25.548;2023-10-13T01:51:43;6.80;;;3.53;;
77466;SDS011;66564;42.482;25.548;2023-10-13T01:54:12;7.28;;;3.75;;
77466;SDS011;66564;42.482;25.548;2023-10-13T01:56:38;8.35;;;3.72;;
77466;SDS011;66564;42.482;25.548;2023-10-13T01:59:10;12.18;;;3.70;;
77466;SDS011;66564;42.482;25.548;2023-10-13T02:01:36;9.20;;;4.95;;
77466;SDS011;66564;42.482;25.548;2023-10-13T02:04:02;6.13;;;3.90;;
77466;SDS011;66564;42.482;25.548;2023-10-13T02:06:35;5.38;;;3.85;;
77466;SDS011;66564;42.482;25.548;2023-10-13T02:09:05;6.05;;;3.25;;
77466;SDS011;66564;42.482;25.548;2023-10-13T02:11:49;10.80;;;3.92;;
77466;SDS011;66564;42.482;25.548;2023-10-13T02:14:19;6.65;;;3.05;;
77466;SDS011;66564;42.482;25.548;2023-10-13T02:16:47;6.60;;;3.50;;
77466;SDS011;66564;42.482;25.548;2023-10-13T02:19:14;7.32;;;3.20;;
77466;SDS011;66564;42.482;25.548;2023-10-13T02:21:44;13.27;;;3.75;;
77466;SDS011;66564;42.482;25.548;2023-10-13T02:24:10;8.07;;;3.50;;
77466;SDS011;66564;42.482;25.548;2023-10-13T02:26:43;5.18;;;3.30;;
77466;SDS011;66564;42.482;25.548;2023-10-13T02:29:09;8.82;;;3.40;;
77466;SDS011;66564;42.482;25.548;2023-10-13T02:31:38;6.30;;;3.50;;
77466;SDS011;66564;42.482;25.548;2023-10-13T02:34:05;11.38;;;3.33;;
77466;SDS011;66564;42.482;25.548;2023-10-13T02:36:34;8.85;;;4.05;;
77466;SDS011;66564;42.482;25.548;2023-10-13T02:39:14;6.18;;;3.58;;
77466;SDS011;66564;42.482;25.548;2023-10-13T02:41:51;8.00;;;3.38;;
77466;SDS011;66564;42.482;25.548;2023-10-13T02:44:18;6.75;;;3.65;;
77466;SDS011;66564;42.482;25.548;2023-10-13T02:46:55;8.40;;;4.05;;
77466;SDS011;66564;42.482;25.548;2023-10-13T02:49:27;12.15;;;3.08;;
77466;SDS011;66564;42.482;25.548;2023-10-13T02:51:56;5.80;;;3.72;;
77466;SDS011;66564;42.482;25.548;2023-10-13T02:54:24;6.68;;;4.43;;
77466;SDS011;66564;42.482;25.548;2023-10-13T02:56:55;13.38;;;3.58;;
77466;SDS011;66564;42.482;25.548;2023-10-13T02:59:28;10.10;;;3.60;;
77466;SDS011;66564;42.482;25.548;2023-10-13T03:02:20;6.15;;;3.20;;
77466;SDS011;66564;42.482;25.548;2023-10-13T03:04:51;10.52;;;3.60;;
77466;SDS011;66564;42.482;25.548;2023-10-13T03:07:17;9.75;;;3.60;;
77466;SDS011;66564;42.482;25.548;2023-10-13T03:09:53;7.72;;;3.25;;
77466;SDS011;66564;42.482;25.548;2023-10-13T03:12:25;9.23;;;4.22;;
77466;SDS011;66564;42.482;25.548;2023-10-13T03:14:51;8.52;;;4.05;;
77466;SDS011;66564;42.482;25.548;2023-10-13T03:17:35;8.68;;;3.25;;
77466;SDS011;66564;42.482;25.548;2023-10-13T03:20:02;6.60;;;3.72;;
77466;SDS011;66564;42.482;25.548;2023-10-13T03:22:30;12.93;;;3.60;;
77466;SDS011;66564;42.482;25.548;2023-10-13T03:24:56;9.32;;;3.50;;
77466;SDS011;66564;42.482;25.548;2023-10-13T03:27:25;5.47;;;3.33;;
77466;SDS011;66564;42.482;25.548;2023-10-13T03:30:11;8.65;;;3.55;;
77466;SDS011;66564;42.482;25.548;2023-10-13T03:32:40;8.00;;;3.40;;
77466;SDS011;66564;42.482;25.548;2023-10-13T03:35:09;5.15;;;3.30;;
77466;SDS011;66564;42.482;25.548;2023-10-13T03:37:39;7.22;;;3.63;;
77466;SDS011;66564;42.482;25.548;2023-10-13T03:42:48;16.90;;;4.28;;
77466;SDS011;66564;42.482;25.548;2023-10-13T03:45:30;6.68;;;3.95;;
77466;SDS011;66564;42.482;25.548;2023-10-13T03:48:04;11.82;;;5.28;;
77466;SDS011;66564;42.482;25.548;2023-10-13T03:50:53;13.35;;;4.60;;
77466;SDS011;66564;42.482;25.548;2023-10-13T03:53:28;7.88;;;4.00;;
77466;SDS011;66564;42.482;25.548;2023-10-13T03:55:59;11.18;;;4.15;;
77466;SDS011;66564;42.482;25.548;2023-10-13T03:58:34;9.13;;;4.10;;
77466;SDS011;66564;42.482;25.548;2023-10-13T04:01:01;9.52;;;4.30;;
77466;SDS011;66564;42.482;25.548;2023-10-13T04:03:28;10.18;;;4.07;;
77466;SDS011;66564;42.482;25.548;2023-10-13T04:06:00;25.30;;;5.25;;
77466;SDS011;66564;42.482;25.548;2023-10-13T04:08:31;57.40;;;6.75;;
77466;SDS011;66564;42.482;25.548;2023-10-13T04:11:13;18.10;;;4.63;;
77466;SDS011;66564;42.482;25.548;2023-10-13T04:13:57;10.73;;;4.70;;
77466;SDS011;66564;42.482;25.548;2023-10-13T04:16:51;7.80;;;4.60;;
77466;SDS011;66564;42.482;25.548;2023-10-13T04:19:19;10.18;;;4.10;;
77466;SDS011;66564;42.482;25.548;2023-10-13T04:21:47;11.30;;;4.65;;
77466;SDS011;66564;42.482;25.548;2023-10-13T04:24:23;8.55;;;4.22;;
77466;SDS011;66564;42.482;25.548;2023-10-13T04:27:09;9.40;;;4.20;;
77466;SDS011;66564;42.482;25.548;2023-10-13T04:29:37;8.82;;;3.83;;
77466;SDS011;66564;42.482;25.548;2023-10-13T04:32:22;10.30;;;4.10;;
77466;SDS011;66564;42.482;25.548;2023-10-13T04:34:57;15.93;;;4.97;;
77466;SDS011;66564;42.482;25.548;2023-10-13T04:37:36;14.77;;;5.32;;
77466;SDS011;66564;42.482;25.548;2023-10-13T04:40:20;6.15;;;4.38;;
77466;SDS011;66564;42.482;25.548;2023-10-13T04:43:00;9.45;;;5.35;;
77466;SDS011;66564;42.482;25.548;2023-10-13T04:45:30;8.10;;;3.97;;
77466;SDS011;66564;42.482;25.548;2023-10-13T04:47:56;10.88;;;4.18;;
77466;SDS011;66564;42.482;25.548;2023-10-13T04:50:45;9.25;;;3.75;;
77466;SDS011;66564;42.482;25.548;2023-10-13T04:53:15;10.18;;;3.95;;
77466;SDS011;66564;42.482;25.548;2023-10-13T04:56:20;13.52;;;5.65;;
77466;SDS011;66564;42.482;25.548;2023-10-13T04:59:03;6.45;;;4.47;;
77466;SDS011;66564;42.482;25.548;2023-10-13T05:02:00;7.28;;;4.32;;
77466;SDS011;66564;42.482;25.548;2023-10-13T05:04:45;9.80;;;4.57;;
77466;SDS011;66564;42.482;25.548;2023-10-13T05:07:36;9.30;;;4.22;;
77466;SDS011;66564;42.482;25.548;2023-10-13T05:10:21;8.75;;;4.25;;
77466;SDS011;66564;42.482;25.548;2023-10-13T05:13:05;8.45;;;4.38;;
77466;SDS011;66564;42.482;25.548;2023-10-13T05:15:50;11.38;;;4.18;;
77466;SDS011;66564;42.482;25.548;2023-10-13T05:18:35;11.73;;;3.90;;
77466;SDS011;66564;42.482;25.548;2023-10-13T05:21:19;21.05;;;5.35;;
77466;SDS011;66564;42.482;25.548;2023-10-13T05:24:03;8.45;;;4.75;;
77466;SDS011;66564;42.482;25.548;2023-10-13T05:26:48;15.55;;;4.20;;
77466;SDS011;66564;42.482;25.548;2023-10-13T05:29:32;8.70;;;4.30;;
77466;SDS011;66564;42.482;25.548;2023-10-13T05:32:16;21.17;;;5.25;;
77466;SDS011;66564;42.482;25.548;2023-10-13T05:35:00;15.20;;;4.43;;
77466;SDS011;66564;42.482;25.548;2023-10-13T05:37:44;7.82;;;4.20;;
77466;SDS011;66564;42.482;25.548;2023-10-13T05:40:28;8.38;;;3.88;;
77466;SDS011;66564;42.482;25.548;2023-10-13T05:43:12;10.45;;;4.32;;
77466;SDS011;66564;42.482;25.548;2023-10-13T05:46:00;6.05;;;4.15;;
77466;SDS011;66564;42.482;25.548;2023-10-13T05:48:45;5.65;;;4.03;;
77466;SDS011;66564;42.482;25.548;2023-10-13T05:51:22;5.68;;;4.22;;
77466;SDS011;66564;42.482;25.548;2023-10-13T05:53:58;6.75;;;4.65;;
77466;SDS011;66564;42.482;25.548;2023-10-13T05:56:48;11.18;;;4.05;;
77466;SDS011;66564;42.482;25.548;2023-10-13T05:59:34;8.25;;;4.22;;
77466;SDS011;66564;42.482;25.548;2023-10-13T06:02:19;13.02;;;4.32;;
77466;SDS011;66564;42.482;25.548;2023-10-13T06:05:04;8.38;;;4.20;;
77466;SDS011;66564;42.482;25.548;2023-10-13T06:07:53;6.93;;;3.88;;
77466;SDS011;66564;42.482;25.548;2023-10-13T06:10:38;13.35;;;5.03;;
77466;SDS011;66564;42.482;25.548;2023-10-13T06:13:24;16.38;;;4.45;;
77466;SDS011;66564;42.482;25.548;2023-10-13T06:16:09;11.85;;;4.82;;
77466;SDS011;66564;42.482;25.548;2023-10-13T06:18:54;9.73;;;4.30;;
77466;SDS011;66564;42.482;25.548;2023-10-13T06:21:40;9.02;;;4.45;;
77466;SDS011;66564;42.482;25.548;2023-10-13T06:24:24;9.30;;;3.90;;
77466;SDS011;66564;42.482;25.548;2023-10-13T06:27:08;6.43;;;4.43;;
77466;SDS011;66564;42.482;25.548;2023-10-13T06:29:52;10.52;;;4.80;;
77466;SDS011;66564;42.482;25.548;2023-10-13T06:32:21;13.35;;;4.68;;
77466;SDS011;66564;42.482;25.548;2023-10-13T06:34:57;7.65;;;4.25;;
77466;SDS011;66564;42.482;25.548;2023-10-13T06:37:23;8.93;;;4.90;;
77466;SDS011;66564;42.482;25.548;2023-10-13T06:39:56;15.80;;;4.57;;
77466;SDS011;66564;42.482;25.548;2023-10-13T06:42:35;8.90;;;4.72;;
77466;SDS011;66564;42.482;25.548;2023-10-13T06:45:02;8.18;;;4.25;;
77466;SDS011;66564;42.482;25.548;2023-10-13T06:47:36;10.57;;;4.57;;
77466;SDS011;66564;42.482;25.548;2023-10-13T06:50:17;6.45;;;4.57;;
77466;SDS011;66564;42.482;25.548;2023-10-13T06:52:48;15.95;;;5.40;;
77466;SDS011;66564;42.482;25.548;2023-10-13T06:57:42;15.20;;;4.50;;
77466;SDS011;66564;42.482;25.548;2023-10-13T07:00:12;12.10;;;4.97;;
77466;SDS011;66564;42.482;25.548;2023-10-13T07:03:13;7.10;;;4.40;;
77466;SDS011;66564;42.482;25.548;2023-10-13T07:05:45;18.67;;;9.05;;
77466;SDS011;66564;42.482;25.548;2023-10-13T07:08:14;16.67;;;7.70;;
77466;SDS011;66564;42.482;25.548;2023-10-13T07:10:49;12.50;;;7.57;;
77466;SDS011;66564;42.482;25.548;2023-10-13T07:13:33;10.48;;;4.05;;
77466;SDS011;66564;42.482;25.548;2023-10-13T07:16:12;16.08;;;5.32;;
77466;SDS011;66564;42.482;25.548;2023-10-13T07:18:38;11.73;;;4.65;;
77466;SDS011;66564;42.482;25.548;2023-10-13T07:21:16;52.75;;;7.50;;
77466;SDS011;66564;42.482;25.548;2023-10-13T07:23:43;14.80;;;5.15;;
77466;SDS011;66564;42.482;25.548;2023-10-13T07:26:25;83.20;;;10.45;;
77466;SDS011;66564;42.482;25.548;2023-10-13T07:28:51;12.70;;;4.85;;
77466;SDS011;66564;42.482;25.548;2023-10-13T07:31:17;11.65;;;4.70;;
77466;SDS011;66564;42.482;25.548;2023-10-13T07:33:46;9.55;;;4.72;;
77466;SDS011;66564;42.482;25.548;2023-10-13T07:36:12;7.57;;;4.72;;
77466;SDS011;66564;42.482;25.548;2023-10-13T07:38:53;16.45;;;5.05;;
77466;SDS011;66564;42.482;25.548;2023-10-13T07:41:45;8.95;;;5.18;;
77466;SDS011;66564;42.482;25.548;2023-10-13T07:44:16;10.98;;;5.47;;
77466;SDS011;66564;42.482;25.548;2023-10-13T07:46:45;13.45;;;5.57;;
77466;SDS011;66564;42.482;25.548;2023-10-13T07:49:22;11.48;;;5.30;;
77466;SDS011;66564;42.482;25.548;2023-10-13T07:51:48;21.67;;;5.38;;
77466;SDS011;66564;42.482;25.548;2023-10-13T07:54:16;34.50;;;6.55;;
77466;SDS011;66564;42.482;25.548;2023-10-13T07:56:48;14.15;;;4.93;;
77466;SDS011;66564;42.482;25.548;2023-10-13T07:59:13;10.43;;;5.10;;
77466;SDS011;66564;42.482;25.548;2023-10-13T08:01:42;9.70;;;4.65;;
77466;SDS011;66564;42.482;25.548;2023-10-13T08:04:10;8.13;;;4.80;;
77466;SDS011;66564;42.482;25.548;2023-10-13T08:06:36;8.82;;;4.50;;
77466;SDS011;66564;42.482;25.548;2023-10-13T08:09:02;7.50;;;4.43;;
77466;SDS011;66564;42.482;25.548;2023-10-13T08:11:54;9.63;;;4.63;;
77466;SDS011;66564;42.482;25.548;2023-10-13T08:14:20;14.23;;;4.93;;
77466;SDS011;66564;42.482;25.548;2023-10-13T08:16:55;7.10;;;3.88;;
77466;SDS011;66564;42.482;25.548;2023-10-13T08:19:25;6.75;;;4.50;;
77466;SDS011;66564;42.482;25.548;2023-10-13T08:21:52;6.72;;;4.60;;
77466;SDS011;66564;42.482;25.548;2023-10-13T08:24:23;12.70;;;4.63;;
77466;SDS011;66564;42.482;25.548;2023-10-13T08:27:05;11.48;;;4.72;;
77466;SDS011;66564;42.482;25.548;2023-10-13T08:29:41;11.43;;;5.15;;
77466;SDS011;66564;42.482;25.548;2023-10-13T08:32:22;9.25;;;5.00;;
77466;SDS011;66564;42.482;25.548;2023-10-13T08:34:58;9.13;;;5.05;;
77466;SDS011;66564;42.482;25.548;2023-10-13T08:37:24;12.23;;;4.70;;
77466;SDS011;66564;42.482;25.548;2023-10-13T08:39:51;14.63;;;4.80;;
77466;SDS011;66564;42.482;25.548;2023-10-13T08:42:29;8.07;;;4.25;;
77466;SDS011;66564;42.482;25.548;2023-10-13T08:45:05;12.35;;;5.35;;
77466;SDS011;66564;42.482;25.548;2023-10-13T08:50:33;8.88;;;4.68;;
77466;SDS011;66564;42.482;25.548;2023-10-13T08:53:31;7.95;;;4.32;;
77466;SDS011;66564;42.482;25.548;2023-10-13T08:56:09;15.82;;;6.13;;
77466;SDS011;66564;42.482;25.548;2023-10-13T08:58:40;15.13;;;5.38;;
77466;SDS011;66564;42.482;25.548;2023-10-13T09:01:28;11.20;;;4.22;;
77466;SDS011;66564;42.482;25.548;2023-10-13T09:04:04;12.82;;;4.85;;
77466;SDS011;66564;42.482;25.548;2023-10-13T09:06:52;7.13;;;4.72;;
77466;SDS011;66564;42.482;25.548;2023-10-13T09:09:33;10.95;;;4.88;;
77466;SDS011;66564;42.482;25.548;2023-10-13T09:12:14;10.38;;;5.05;;
77466;SDS011;66564;42.482;25.548;2023-10-13T09:14:51;19.13;;;5.15;;
77466;SDS011;66564;42.482;25.548;2023-10-13T09:17:30;13.30;;;5.07;;
77466;SDS011;66564;42.482;25.548;2023-10-13T09:19:59;7.65;;;4.75;;
77466;SDS011;66564;42.482;25.548;2023-10-13T09:22:44;10.55;;;5.05;;
77466;SDS011;66564;42.482;25.548;2023-10-13T09:25:21;16.17;;;5.50;;
77466;SDS011;66564;42.482;25.548;2023-10-13T09:27:48;8.93;;;5.00;;
77466;SDS011;66564;42.482;25.548;2023-10-13T09:30:16;11.98;;;4.80;;
77466;SDS011;66564;42.482;25.548;2023-10-13T09:32:46;14.60;;;5.72;;
77466;SDS011;66564;42.482;25.548;2023-10-13T09:35:18;20.27;;;5.20;;
77466;SDS011;66564;42.482;25.548;2023-10-13T09:37:44;8.82;;;4.53;;
77466;SDS011;66564;42.482;25.548;2023-10-13T09:40:16;8.63;;;4.88;;
77466;SDS011;66564;42.482;25.548;2023-10-13T09:43:03;8.82;;;4.50;;
77466;SDS011;66564;42.482;25.548;2023-10-13T09:45:40;9.63;;;5.13;;
77466;SDS011;66564;42.482;25.548;2023-10-13T09:48:26;14.63;;;4.55;;
77466;SDS011;66564;42.482;25.548;2023-10-13T09:50:59;9.13;;;4.38;;
77466;SDS011;66564;42.482;25.548;2023-10-13T09:53:26;20.45;;;5.03;;
77466;SDS011;66564;42.482;25.548;2023-10-13T09:55:56;12.18;;;4.47;;
77466;SDS011;66564;42.482;25.548;2023-10-13T10:01:03;7.97;;;4.35;;
77466;SDS011;66564;42.482;25.548;2023-10-13T10:03:45;17.77;;;5.03;;
77466;SDS011;66564;42.482;25.548;2023-10-13T10:06:32;9.80;;;4.78;;
77466;SDS011;66564;42.482;25.548;2023-10-13T10:09:05;9.05;;;4.60;;
77466;SDS011;66564;42.482;25.548;2023-10-13T10:17:37;12.23;;;4.82;;
77466;SDS011;66564;42.482;25.548;2023-10-13T10:20:04;22.35;;;5.85;;
77466;SDS011;66564;42.482;25.548;2023-10-13T10:22:40;12.75;;;4.25;;
77466;SDS011;66564;42.482;25.548;2023-10-13T10:25:13;15.55;;;5.70;;
77466;SDS011;66564;42.482;25.548;2023-10-13T10:28:03;10.63;;;4.57;;
77466;SDS011;66564;42.482;25.548;2023-10-13T10:30:31;9.30;;;5.10;;
77466;SDS011;66564;42.482;25.548;2023-10-13T10:33:04;9.93;;;4.43;;
77466;SDS011;66564;42.482;25.548;2023-10-13T10:35:45;10.40;;;4.53;;
77466;SDS011;66564;42.482;25.548;2023-10-13T10:38:12;14.70;;;4.82;;
77466;SDS011;66564;42.482;25.548;2023-10-13T10:41:12;8.05;;;5.22;;
77466;SDS011;66564;42.482;25.548;2023-10-13T10:43:38;9.43;;;4.88;;
77466;SDS011;66564;42.482;25.548;2023-10-13T10:48:41;9.35;;;4.32;;
77466;SDS011;66564;42.482;25.548;2023-10-13T10:51:12;16.98;;;5.20;;
77466;SDS011;66564;42.482;25.548;2023-10-13T10:53:49;9.43;;;5.10;;
77466;SDS011;66564;42.482;25.548;2023-10-13T10:56:17;7.63;;;4.53;;
77466;SDS011;66564;42.482;25.548;2023-10-13T10:58:58;6.70;;;4.68;;
77466;SDS011;66564;42.482;25.548;2023-10-13T11:01:28;14.77;;;4.93;;
77466;SDS011;66564;42.482;25.548;2023-10-13T11:04:12;9.13;;;4.28;;
77466;SDS011;66564;42.482;25.548;2023-10-13T11:06:52;15.68;;;4.72;;
77466;SDS011;66564;42.482;25.548;2023-10-13T11:09:24;7.45;;;3.80;;
77466;SDS011;66564;42.482;25.548;2023-10-13T11:14:40;8.85;;;4.93;;
77466;SDS011;66564;42.482;25.548;2023-10-13T11:17:06;7.28;;;4.53;;
77466;SDS011;66564;42.482;25.548;2023-10-13T11:19:46;10.15;;;4.63;;
77466;SDS011;66564;42.482;25.548;2023-10-13T11:22:21;9.95;;;4.80;;
77466;SDS011;66564;42.482;25.548;2023-10-13T11:25:07;7.95;;;4.53;;
77466;SDS011;66564;42.482;25.548;2023-10-13T11:27:38;10.63;;;4.63;;
77466;SDS011;66564;42.482;25.548;2023-10-13T11:30:14;7.00;;;4.63;;
77466;SDS011;66564;42.482;25.548;2023-10-13T11:33:00;8.05;;;4.80;;
77466;SDS011;66564;42.482;25.548;2023-10-13T11:35:32;14.98;;;4.80;;
77466;SDS011;66564;42.482;25.548;2023-10-13T11:38:14;9.57;;;5.13;;
77466;SDS011;66564;42.482;25.548;2023-10-13T11:40:50;7.35;;;4.38;;
77466;SDS011;66564;42.482;25.548;2023-10-13T11:43:31;7.65;;;4.90;;
77466;SDS011;66564;42.482;25.548;2023-10-13T11:46:12;9.70;;;4.90;;
77466;SDS011;66564;42.482;25.548;2023-10-13T11:48:40;11.55;;;5.10;;
77466;SDS011;66564;42.482;25.548;2023-10-13T11:51:07;16.80;;;5.13;;
77466;SDS011;66564;42.482;25.548;2023-10-13T11:53:37;13.02;;;5.60;;
77466;SDS011;66564;42.482;25.548;2023-10-13T11:56:04;19.13;;;5.38;;
77466;SDS011;66564;42.482;25.548;2023-10-13T12:01:05;10.32;;;5.68;;
77466;SDS011;66564;42.482;25.548;2023-10-13T12:06:24;12.38;;;5.22;;
77466;SDS011;66564;42.482;25.548;2023-10-13T12:11:47;15.70;;;7.00;;
77466;SDS011;66564;42.482;25.548;2023-10-13T12:14:16;15.00;;;6.22;;
77466;SDS011;66564;42.482;25.548;2023-10-13T12:16:45;18.48;;;6.28;;
77466;SDS011;66564;42.482;25.548;2023-10-13T12:19:16;10.13;;;5.13;;
77466;SDS011;66564;42.482;25.548;2023-10-13T12:21:45;13.13;;;5.72;;
77466;SDS011;66564;42.482;25.548;2023-10-13T12:24:12;12.15;;;4.95;;
77466;SDS011;66564;42.482;25.548;2023-10-13T12:26:48;9.98;;;5.90;;
77466;SDS011;66564;42.482;25.548;2023-10-13T12:29:20;10.38;;;5.25;;
77466;SDS011;66564;42.482;25.548;2023-10-13T12:31:48;9.35;;;5.90;;
77466;SDS011;66564;42.482;25.548;2023-10-13T12:34:30;13.52;;;5.28;;
77466;SDS011;66564;42.482;25.548;2023-10-13T12:37:14;16.33;;;6.72;;
77466;SDS011;66564;42.482;25.548;2023-10-13T12:39:59;9.43;;;5.50;;
77466;SDS011;66564;42.482;25.548;2023-10-13T12:42:43;13.95;;;5.13;;
77466;SDS011;66564;42.482;25.548;2023-10-13T12:45:27;8.93;;;5.70;;
77466;SDS011;66564;42.482;25.548;2023-10-13T12:48:11;14.43;;;5.18;;
77466;SDS011;66564;42.482;25.548;2023-10-13T12:50:56;17.67;;;5.57;;
77466;SDS011;66564;42.482;25.548;2023-10-13T12:53:44;9.10;;;4.72;;
77466;SDS011;66564;42.482;25.548;2023-10-13T12:56:10;18.60;;;5.60;;
77466;SDS011;66564;42.482;25.548;2023-10-13T12:58:36;9.77;;;4.90;;
77466;SDS011;66564;42.482;25.548;2023-10-13T13:01:07;12.13;;;4.65;;
77466;SDS011;66564;42.482;25.548;2023-10-13T13:03:33;12.80;;;5.90;;
77466;SDS011;66564;42.482;25.548;2023-10-13T13:05:59;12.40;;;5.38;;
77466;SDS011;66564;42.482;25.548;2023-10-13T13:08:31;12.55;;;5.35;;
77466;SDS011;66564;42.482;25.548;2023-10-13T13:11:00;15.05;;;5.80;;
77466;SDS011;66564;42.482;25.548;2023-10-13T13:13:26;9.25;;;5.00;;
77466;SDS011;66564;42.482;25.548;2023-10-13T13:15:52;15.82;;;5.80;;
77466;SDS011;66564;42.482;25.548;2023-10-13T13:18:18;19.38;;;5.82;;
77466;SDS011;66564;42.482;25.548;2023-10-13T13:20:44;9.52;;;5.80;;
77466;SDS011;66564;42.482;25.548;2023-10-13T13:23:19;13.10;;;5.30;;
77466;SDS011;66564;42.482;25.548;2023-10-13T13:25:46;9.68;;;5.50;;
77466;SDS011;66564;42.482;25.548;2023-10-13T13:28:12;12.63;;;6.20;;
77466;SDS011;66564;42.482;25.548;2023-10-13T13:30:38;16.73;;;6.43;;
77466;SDS011;66564;42.482;25.548;2023-10-13T13:33:05;18.17;;;6.80;;
77466;SDS011;66564;42.482;25.548;2023-10-13T13:35:38;14.43;;;6.35;;
77466;SDS011;66564;42.482;25.548;2023-10-13T13:38:04;10.32;;;5.90;;
77466;SDS011;66564;42.482;25.548;2023-10-13T13:40:38;12.80;;;6.32;;
77466;SDS011;66564;42.482;25.548;2023-10-13T13:43:04;11.18;;;5.95;;
77466;SDS011;66564;42.482;25.548;2023-10-13T13:45:31;19.17;;;6.63;;
77466;SDS011;66564;42.482;25.548;2023-10-13T13:47:59;8.77;;;5.45;;
77466;SDS011;66564;42.482;25.548;2023-10-13T13:50:26;14.60;;;5.45;;
77466;SDS011;66564;42.482;25.548;2023-10-13T13:52:54;11.93;;;5.30;;
77466;SDS011;66564;42.482;25.548;2023-10-13T13:57:49;11.70;;;5.63;;
77466;SDS011;66564;42.482;25.548;2023-10-13T14:00:18;30.58;;;6.95;;
77466;SDS011;66564;42.482;25.548;2023-10-13T14:03:05;15.15;;;5.55;;
77466;SDS011;66564;42.482;25.548;2023-10-13T14:05:40;17.50;;;5.82;;
77466;SDS011;66564;42.482;25.548;2023-10-13T14:08:06;14.48;;;6.45;;
77466;SDS011;66564;42.482;25.548;2023-10-13T14:10:36;15.02;;;5.82;;
77466;SDS011;66564;42.482;25.548;2023-10-13T14:13:23;15.68;;;6.03;;
77466;SDS011;66564;42.482;25.548;2023-10-13T14:16:09;14.57;;;5.80;;
77466;SDS011;66564;42.482;25.548;2023-10-13T14:18:42;8.98;;;5.30;;
77466;SDS011;66564;42.482;25.548;2023-10-13T14:21:13;18.02;;;5.10;;
77466;SDS011;66564;42.482;25.548;2023-10-13T14:23:49;14.93;;;5.32;;
77466;SDS011;66564;42.482;25.548;2023-10-13T14:26:18;11.48;;;4.80;;
77466;SDS011;66564;42.482;25.548;2023-10-13T14:28:50;15.32;;;6.28;;
77466;SDS011;66564;42.482;25.548;2023-10-13T14:31:35;10.90;;;5.13;;
77466;SDS011;66564;42.482;25.548;2023-10-13T14:34:07;18.83;;;6.72;;
77466;SDS011;66564;42.482;25.548;2023-10-13T14:36:33;19.05;;;6.20;;
77466;SDS011;66564;42.482;25.548;2023-10-13T14:39:02;10.38;;;5.22;;
77466;SDS011;66564;42.482;25.548;2023-10-13T14:41:34;11.70;;;5.55;;
77466;SDS011;66564;42.482;25.548;2023-10-13T14:44:03;13.07;;;6.40;;
77466;SDS011;66564;42.482;25.548;2023-10-13T14:46:32;16.73;;;6.32;;
77466;SDS011;66564;42.482;25.548;2023-10-13T14:49:03;9.32;;;5.35;;
77466;SDS011;66564;42.482;25.548;2023-10-13T14:51:29;18.42;;;6.95;;
77466;SDS011;66564;42.482;25.548;2023-10-13T14:53:54;12.07;;;5.68;;
77466;SDS011;66564;42.482;25.548;2023-10-13T14:56:24;25.48;;;6.97;;
77466;SDS011;66564;42.482;25.548;2023-10-13T14:58:51;11.57;;;6.22;;
77466;SDS011;66564;42.482;25.548;2023-10-13T15:01:19;18.38;;;6.50;;
77466;SDS011;66564;42.482;25.548;2023-10-13T15:03:47;16.35;;;6.07;;
77466;SDS011;66564;42.482;25.548;2023-10-13T15:08:44;66.28;;;11.93;;
77466;SDS011;66564;42.482;25.548;2023-10-13T15:11:11;62.33;;;15.77;;
77466;SDS011;66564;42.482;25.548;2023-10-13T15:16:19;58.50;;;16.98;;
77466;SDS011;66564;42.482;25.548;2023-10-13T15:18:48;31.17;;;11.82;;
77466;SDS011;66564;42.482;25.548;2023-10-13T15:21:20;47.65;;;16.15;;
77466;SDS011;66564;42.482;25.548;2023-10-13T15:24:01;55.53;;;14.57;;
77466;SDS011;66564;42.482;25.548;2023-10-13T15:26:41;35.15;;;13.05;;
77466;SDS011;66564;42.482;25.548;2023-10-13T15:29:16;37.28;;;12.02;;
77466;SDS011;66564;42.482;25.548;2023-10-13T15:31:43;40.58;;;11.75;;
77466;SDS011;66564;42.482;25.548;2023-10-13T15:34:29;47.85;;;14.27;;
77466;SDS011;66564;42.482;25.548;2023-10-13T15:36:56;130.80;;;32.75;;
77466;SDS011;66564;42.482;25.548;2023-10-13T15:39:23;332.23;;;67.07;;
77466;SDS011;66564;42.482;25.548;2023-10-13T15:41:51;405.75;;;83.47;;
77466;SDS011;66564;42.482;25.548;2023-10-13T15:44:24;422.17;;;82.28;;